createdAt,value
2023-02-22T00:01:16.028Z,63.8
2023-02-22T00:02:59.738Z,63.7
2023-02-22T00:04:43.420Z,64
2023-02-22T00:06:27.118Z,63.9
2023-02-22T00:08:10.824Z,63.9
2023-02-22T00:09:54.523Z,64
2023-02-22T00:11:38.229Z,64
2023-02-22T00:13:21.940Z,64
2023-02-22T00:15:05.641Z,64
2023-02-22T00:16:49.346Z,64
2023-02-22T00:18:33.037Z,64.1
2023-02-22T00:20:16.740Z,64.1
2023-02-22T00:22:00.452Z,64.1
2023-02-22T00:23:44.150Z,64
2023-02-22T00:25:27.849Z,64.1
2023-02-22T00:27:11.555Z,64.1
2023-02-22T00:28:55.255Z,63.9
2023-02-22T00:30:38.962Z,63.8
2023-02-22T00:32:22.666Z,63.8
2023-02-22T00:34:06.362Z,64
2023-02-22T00:35:50.069Z,64
2023-02-22T00:37:33.769Z,63.9
2023-02-22T00:39:17.475Z,63.9
2023-02-22T00:41:01.173Z,64
2023-02-22T00:42:44.872Z,63.8
2023-02-22T00:44:28.576Z,63.7
2023-02-22T00:46:12.283Z,63.6
2023-02-22T00:47:55.978Z,63.8
2023-02-22T00:49:39.689Z,63.5
2023-02-22T00:51:23.374Z,63.7
2023-02-22T00:53:07.086Z,63.8
2023-02-22T00:54:50.809Z,63.6
2023-02-22T00:56:34.493Z,63.5
2023-02-22T00:58:18.212Z,63.5
2023-02-22T01:00:01.907Z,63.6
2023-02-22T01:01:45.606Z,63.8
2023-02-22T01:03:29.312Z,63.7
2023-02-22T01:05:13.009Z,63.6
2023-02-22T01:06:56.706Z,63.5
2023-02-22T01:08:40.471Z,63.4
2023-02-22T01:10:24.132Z,63.3
2023-02-22T01:12:07.814Z,63.4
2023-02-22T01:13:51.519Z,63.6
2023-02-22T01:15:35.235Z,63.6
2023-02-22T01:17:18.937Z,63.4
2023-02-22T01:19:02.632Z,63.1
2023-02-22T01:20:46.327Z,62.9
2023-02-22T01:22:30.039Z,62.8
2023-02-22T01:24:13.799Z,63
2023-02-22T01:25:57.442Z,63.4
2023-02-22T01:27:41.144Z,63.6
2023-02-22T01:29:24.847Z,63.5
2023-02-22T01:31:08.551Z,63.4
2023-02-22T01:32:52.245Z,63.3
2023-02-22T01:34:35.987Z,62.8
2023-02-22T01:38:03.354Z,62.4
2023-02-22T01:39:47.063Z,62.9
2023-02-22T01:41:30.765Z,63.1
2023-02-22T01:43:14.465Z,63.1
2023-02-22T01:44:58.172Z,63.2
2023-02-22T01:46:41.866Z,63.2
2023-02-22T01:48:25.571Z,63.3
2023-02-22T01:50:09.279Z,63.3
2023-02-22T01:51:52.969Z,63
2023-02-22T01:53:36.699Z,62.9
2023-02-22T01:55:20.377Z,63.3
2023-02-22T01:57:04.079Z,63.4
2023-02-22T01:58:47.787Z,63.4
2023-02-22T02:00:31.508Z,63.4
2023-02-22T02:02:15.189Z,63.4
2023-02-22T02:03:58.889Z,63.5
2023-02-22T02:05:42.584Z,63.5
2023-02-22T02:07:26.295Z,63.5
2023-02-22T02:09:09.990Z,63.5
2023-02-22T02:10:53.708Z,63.5
2023-02-22T02:12:37.404Z,63.5
2023-02-22T02:14:21.102Z,63.6
2023-02-22T02:16:04.811Z,63.6
2023-02-22T02:17:48.513Z,63.6
2023-02-22T02:19:32.212Z,63.6
2023-02-22T02:21:15.920Z,63.6
2023-02-22T02:22:59.623Z,63.6
2023-02-22T02:24:43.326Z,63.6
2023-02-22T02:26:27.032Z,63.7
2023-02-22T02:28:10.732Z,63.7
2023-02-22T02:29:54.438Z,63.7
2023-02-22T02:31:38.143Z,63.7
2023-02-22T02:33:21.839Z,63.2
2023-02-22T02:35:05.551Z,63.3
2023-02-22T02:36:49.248Z,63.7
2023-02-22T02:38:32.961Z,63.8
2023-02-22T02:40:16.655Z,63.7
2023-02-22T02:42:00.350Z,63.7
2023-02-22T02:43:44.048Z,63.6
2023-02-22T02:45:27.787Z,63.6
2023-02-22T02:47:11.458Z,63.6
2023-02-22T02:48:55.145Z,63.6
2023-02-22T02:50:38.867Z,63.6
2023-02-22T02:52:22.563Z,63.6
2023-02-22T02:54:06.267Z,63.6
2023-02-22T02:55:49.971Z,63.7
2023-02-22T02:57:33.670Z,63.7
2023-02-22T02:59:17.392Z,63.7
2023-02-22T03:01:01.074Z,63.7
2023-02-22T03:02:44.781Z,63.7
2023-02-22T03:04:28.495Z,63.7
2023-02-22T03:06:12.193Z,63.7
2023-02-22T03:07:55.889Z,63.7
2023-02-22T03:09:39.593Z,63.7
2023-02-22T03:11:23.295Z,63.7
2023-02-22T03:13:07.017Z,63.8
2023-02-22T03:14:50.694Z,63.8
2023-02-22T03:16:34.401Z,63.8
2023-02-22T03:18:18.110Z,63.8
2023-02-22T03:20:01.805Z,63.8
2023-02-22T03:21:45.507Z,63.8
2023-02-22T03:23:29.209Z,63.8
2023-02-22T03:25:12.909Z,63.8
2023-02-22T03:26:56.627Z,63.8
2023-02-22T03:28:40.326Z,63.8
2023-02-22T03:30:24.023Z,63.8
2023-02-22T03:32:07.734Z,63.8
2023-02-22T03:33:51.430Z,63.8
2023-02-22T03:35:35.155Z,63.8
2023-02-22T03:37:18.838Z,63.8
2023-02-22T03:39:02.540Z,63.7
2023-02-22T03:40:46.245Z,63.8
2023-02-22T03:42:29.939Z,63.7
2023-02-22T03:44:13.643Z,63.8
2023-02-22T03:45:57.360Z,63.8
2023-02-22T03:47:41.052Z,63.8
2023-02-22T03:49:24.760Z,63.8
2023-02-22T03:51:08.462Z,63.8
2023-02-22T03:52:52.161Z,63.8
2023-02-22T03:54:35.868Z,63.8
2023-02-22T03:56:19.562Z,63.8
2023-02-22T03:58:03.272Z,63.8
2023-02-22T03:59:46.975Z,63.8
2023-02-22T04:01:30.676Z,63.7
2023-02-22T04:03:14.383Z,63.7
2023-02-22T04:04:58.081Z,63.8
2023-02-22T04:06:41.784Z,63.8
2023-02-22T04:08:25.483Z,63.8
2023-02-22T04:10:09.181Z,63.8
2023-02-22T04:11:52.886Z,63.8
2023-02-22T04:13:36.592Z,63.7
2023-02-22T04:15:20.286Z,63.8
2023-02-22T04:17:03.995Z,63.8
2023-02-22T04:18:47.705Z,63.8
2023-02-22T04:20:31.395Z,63.8
2023-02-22T04:22:15.103Z,63.9
2023-02-22T04:23:58.791Z,63.8
2023-02-22T04:25:42.511Z,63.7
2023-02-22T04:27:26.208Z,63.8
2023-02-22T04:29:09.910Z,63.8
2023-02-22T04:30:53.614Z,63.8
2023-02-22T04:32:37.313Z,63.8
2023-02-22T04:34:21.013Z,63.8
2023-02-22T04:36:04.717Z,63.8
2023-02-22T04:37:48.421Z,63.8
2023-02-22T04:39:32.121Z,63.8
2023-02-22T04:41:15.887Z,63.8
2023-02-22T04:42:59.527Z,63.8
2023-02-22T04:44:43.236Z,63.7
2023-02-22T04:46:26.945Z,63.7
2023-02-22T04:48:10.649Z,63.7
2023-02-22T04:49:54.340Z,63.7
2023-02-22T04:51:38.048Z,63.7
2023-02-22T04:53:21.774Z,63.7
2023-02-22T04:55:05.456Z,63.7
2023-02-22T04:56:49.152Z,63.7
2023-02-22T04:58:32.860Z,63.6
2023-02-22T05:00:16.587Z,63.7
2023-02-22T05:02:00.262Z,63.7
2023-02-22T05:03:43.960Z,63.7
2023-02-22T05:05:27.666Z,63.7
2023-02-22T05:07:11.374Z,63.6
2023-02-22T05:08:55.074Z,63.6
2023-02-22T05:10:38.774Z,63.6
2023-02-22T05:12:22.472Z,63.6
2023-02-22T05:14:06.201Z,63.6
2023-02-22T05:15:49.880Z,63.6
2023-02-22T05:17:33.587Z,63.6
2023-02-22T05:19:17.293Z,63.6
2023-02-22T05:21:00.996Z,63.6
2023-02-22T05:22:44.701Z,63.6
2023-02-22T05:24:28.387Z,63.6
2023-02-22T05:26:12.099Z,63.5
2023-02-22T05:27:55.807Z,63.6
2023-02-22T05:29:39.500Z,63.6
2023-02-22T05:31:23.209Z,63.6
2023-02-22T05:33:06.913Z,63.6
2023-02-22T05:34:50.611Z,63.5
2023-02-22T05:36:34.321Z,63.6
2023-02-22T05:38:18.005Z,63.5
2023-02-22T05:40:01.741Z,63.6
2023-02-22T05:41:45.427Z,63.5
2023-02-22T05:43:29.119Z,63.5
2023-02-22T05:45:12.827Z,63.5
2023-02-22T05:46:56.538Z,63.5
2023-02-22T05:48:40.229Z,63.5
2023-02-22T05:50:23.942Z,63.5
2023-02-22T05:52:07.645Z,63.5
2023-02-22T05:53:51.344Z,63.5
2023-02-22T05:55:35.039Z,63.5
2023-02-22T05:57:18.740Z,63.5
2023-02-22T05:59:02.444Z,63.5
2023-02-22T06:00:46.149Z,63.5
2023-02-22T06:02:29.850Z,63.5
2023-02-22T06:04:13.554Z,63.4
2023-02-22T06:05:57.257Z,63.4
2023-02-22T06:07:40.955Z,63.5
2023-02-22T06:09:24.665Z,63.5
2023-02-22T06:11:08.360Z,63.4
2023-02-22T06:12:52.064Z,63.4
2023-02-22T06:14:35.773Z,63.5
2023-02-22T06:16:19.497Z,63.4
2023-02-22T06:18:03.178Z,63.4
2023-02-22T06:19:46.870Z,63.4
2023-02-22T06:21:30.577Z,63.4
2023-02-22T06:23:14.289Z,63.4
2023-02-22T06:24:57.982Z,63.4
2023-02-22T06:26:41.684Z,63.4
2023-02-22T06:28:25.392Z,63.4
2023-02-22T06:30:09.081Z,63.4
2023-02-22T06:31:52.790Z,63.4
2023-02-22T06:33:36.480Z,64.6
2023-02-22T06:37:03.898Z,64.7
2023-02-22T06:38:47.594Z,64.5
2023-02-22T06:40:31.306Z,64.5
2023-02-22T06:42:15.043Z,64.4
2023-02-22T06:43:58.699Z,64.4
2023-02-22T06:45:42.412Z,64.4
2023-02-22T06:47:26.111Z,64.3
2023-02-22T06:49:09.821Z,64.3
2023-02-22T06:50:53.521Z,64.2
2023-02-22T06:52:37.219Z,64.2
2023-02-22T06:54:20.919Z,64
2023-02-22T06:56:04.630Z,63.9
2023-02-22T06:57:48.327Z,63.8
2023-02-22T06:59:32.030Z,63.7
2023-02-22T07:01:15.740Z,63.6
2023-02-22T07:02:59.436Z,63.5
2023-02-22T07:04:43.149Z,63.4
2023-02-22T07:06:26.832Z,64.2
2023-02-22T07:08:10.549Z,65.7
2023-02-22T07:09:54.251Z,65.5
2023-02-22T07:11:37.951Z,65.3
2023-02-22T07:13:21.648Z,65.4
2023-02-22T07:15:05.358Z,65.3
2023-02-22T07:16:49.070Z,65.5
2023-02-22T07:18:32.765Z,65.7
2023-02-22T07:20:16.468Z,65.6
2023-02-22T07:22:00.170Z,65.7
2023-02-22T07:23:43.869Z,65.6
2023-02-22T07:25:27.569Z,65.6
2023-02-22T07:27:11.277Z,65.5
2023-02-22T07:28:54.998Z,65.4
2023-02-22T07:30:38.692Z,65.4
2023-02-22T07:32:22.381Z,65.3
2023-02-22T07:34:06.092Z,65.3
2023-02-22T07:35:49.811Z,65.3
2023-02-22T07:37:33.509Z,65.2
2023-02-22T07:39:17.224Z,65.3
2023-02-22T07:41:00.899Z,65.2
2023-02-22T07:42:44.644Z,65.1
2023-02-22T07:44:28.306Z,65.1
2023-02-22T07:46:12.008Z,65
2023-02-22T07:47:55.718Z,65
2023-02-22T07:49:39.489Z,65
2023-02-22T07:51:23.179Z,65
2023-02-22T07:53:06.828Z,64.9
2023-02-22T07:54:50.541Z,64.8
2023-02-22T07:56:34.233Z,64.8
2023-02-22T07:58:17.932Z,64.7
2023-02-22T08:00:01.642Z,64.7
2023-02-22T08:01:45.324Z,64.6
2023-02-22T08:03:29.040Z,64.5
2023-02-22T08:05:12.745Z,64.5
2023-02-22T08:06:56.452Z,64.4
2023-02-22T08:08:40.167Z,64.4
2023-02-22T08:10:23.871Z,64.3
2023-02-22T08:12:07.538Z,64.3
2023-02-22T08:13:51.282Z,64.2
2023-02-22T08:15:35.028Z,64.3
2023-02-22T08:17:18.672Z,64.3
2023-02-22T08:19:02.373Z,64.3
2023-02-22T08:20:46.087Z,64.2
2023-02-22T08:22:29.776Z,64.2
2023-02-22T08:24:13.483Z,64.2
2023-02-22T08:25:57.173Z,64.1
2023-02-22T08:27:40.870Z,64.1
2023-02-22T08:29:24.582Z,64
2023-02-22T08:31:08.274Z,64
2023-02-22T08:32:52.020Z,64
2023-02-22T08:34:35.694Z,63.9
2023-02-22T08:36:19.401Z,63.9
2023-02-22T08:38:03.100Z,63.8
2023-02-22T08:39:46.796Z,63.8
2023-02-22T08:41:30.548Z,63.7
2023-02-22T08:43:14.210Z,63.4
2023-02-22T08:44:57.911Z,63.3
2023-02-22T08:46:41.610Z,63.4
2023-02-22T08:48:25.390Z,63.5
2023-02-22T08:50:09.012Z,63.5
2023-02-22T08:51:52.721Z,63.4
2023-02-22T08:53:36.415Z,63.4
2023-02-22T08:55:20.146Z,63.4
2023-02-22T08:57:03.823Z,63.4
2023-02-22T08:58:47.526Z,63.4
2023-02-22T09:00:31.236Z,63.3
2023-02-22T09:02:14.926Z,63.3
2023-02-22T09:03:58.638Z,63.3
2023-02-22T09:05:42.339Z,63.2
2023-02-22T09:07:26.038Z,63.2
2023-02-22T09:09:09.830Z,63.2
2023-02-22T09:10:53.550Z,63.2
2023-02-22T09:12:37.144Z,63.2
2023-02-22T09:14:21.056Z,63.1
2023-02-22T09:16:04.550Z,63.1
2023-02-22T09:17:48.249Z,63
2023-02-22T09:19:32.041Z,63
2023-02-22T09:21:15.653Z,63
2023-02-22T09:22:59.368Z,62.9
2023-02-22T09:24:43.089Z,62.9
2023-02-22T09:26:26.759Z,62.9
2023-02-22T09:28:10.507Z,62.8
2023-02-22T09:29:54.252Z,62.8
2023-02-22T09:31:37.869Z,62.8
2023-02-22T09:33:21.577Z,62.7
2023-02-22T09:35:05.271Z,62.7
2023-02-22T09:36:49.111Z,62.7
2023-02-22T09:38:32.803Z,62.7
2023-02-22T09:40:16.382Z,62.6
2023-02-22T09:42:00.090Z,62.6
2023-02-22T09:43:43.790Z,62.5
2023-02-22T09:45:27.506Z,62.5
2023-02-22T09:47:11.191Z,62.5
2023-02-22T09:48:54.899Z,62.4
2023-02-22T09:50:38.610Z,62.5
2023-02-22T09:52:22.321Z,62.4
2023-02-22T09:54:05.999Z,62.1
2023-02-22T09:55:49.704Z,62.3
2023-02-22T09:57:33.441Z,62.3
2023-02-22T09:59:17.116Z,62.3
2023-02-22T10:01:00.816Z,62.2
2023-02-22T10:02:44.514Z,62.2
2023-02-22T10:04:28.222Z,62.1
2023-02-22T10:06:11.933Z,62.1
2023-02-22T10:07:55.625Z,62.1
2023-02-22T10:09:39.335Z,62.1
2023-02-22T10:11:23.128Z,62.1
2023-02-22T10:13:06.727Z,62.1
2023-02-22T10:14:50.440Z,62.1
2023-02-22T10:16:34.281Z,62
2023-02-22T10:18:17.847Z,62
2023-02-22T10:20:01.546Z,62
2023-02-22T10:21:45.249Z,62
2023-02-22T10:23:28.955Z,62
2023-02-22T10:25:12.655Z,62
2023-02-22T10:26:56.357Z,62
2023-02-22T10:28:40.078Z,62
2023-02-22T10:30:23.760Z,61.9
2023-02-22T10:32:07.458Z,61.9
2023-02-22T10:33:51.168Z,61.9
2023-02-22T10:35:34.896Z,61.9
2023-02-22T10:37:18.572Z,61.9
2023-02-22T10:39:02.275Z,61.9
2023-02-22T10:40:46.011Z,61.9
2023-02-22T10:42:29.680Z,61.8
2023-02-22T10:44:13.384Z,61.8
2023-02-22T10:45:57.070Z,61.8
2023-02-22T10:47:40.823Z,61.5
2023-02-22T10:49:24.494Z,60.6
2023-02-22T10:51:08.197Z,60.3
2023-02-22T10:52:51.899Z,60.7
2023-02-22T10:54:35.600Z,61
2023-02-22T10:56:19.304Z,61.1
2023-02-22T10:58:03.005Z,61.1
2023-02-22T10:59:46.715Z,61.1
2023-02-22T11:01:30.410Z,61.1
2023-02-22T11:03:14.114Z,61
2023-02-22T11:04:57.827Z,60.9
2023-02-22T11:06:41.543Z,60.1
2023-02-22T11:08:25.213Z,59.4
2023-02-22T11:10:08.921Z,59.3
2023-02-22T11:11:52.652Z,59.2
2023-02-22T11:13:36.329Z,59.1
2023-02-22T11:15:20.025Z,59
2023-02-22T11:17:03.744Z,59
2023-02-22T11:18:47.432Z,58.8
2023-02-22T11:20:31.128Z,58.8
2023-02-22T11:22:14.859Z,58.7
2023-02-22T11:23:58.622Z,58.7
2023-02-22T11:25:42.282Z,58.7
2023-02-22T11:27:25.956Z,58.6
2023-02-22T11:29:09.708Z,58.7
2023-02-22T11:30:53.340Z,58.7
2023-02-22T11:32:37.046Z,58.7
2023-02-22T11:34:20.903Z,58.5
2023-02-22T11:36:04.630Z,58.4
2023-02-22T11:37:48.156Z,58.4
2023-02-22T11:39:31.853Z,58.6
2023-02-22T11:41:15.565Z,58.3
2023-02-22T11:42:59.254Z,58.2
2023-02-22T11:44:42.969Z,58.1
2023-02-22T11:46:26.684Z,58.2
2023-02-22T11:48:10.357Z,58.1
2023-02-22T11:49:54.070Z,58
2023-02-22T11:51:37.777Z,58.1
2023-02-22T11:53:21.773Z,58
2023-02-22T11:55:05.197Z,58
2023-02-22T11:56:48.897Z,58.3
2023-02-22T11:58:32.634Z,58.8
2023-02-22T12:00:16.355Z,58.8
2023-02-22T12:01:59.993Z,58.9
2023-02-22T12:03:43.688Z,58.9
2023-02-22T12:05:27.439Z,59
2023-02-22T12:07:11.173Z,59.1
2023-02-22T12:08:54.818Z,59.2
2023-02-22T12:10:38.546Z,59.3
2023-02-22T12:12:22.306Z,59.4
2023-02-22T12:14:05.932Z,59.4
2023-02-22T12:15:49.602Z,59.4
2023-02-22T12:17:33.343Z,59.5
2023-02-22T12:19:17.012Z,59.5
2023-02-22T12:21:00.748Z,59.6
2023-02-22T12:22:44.423Z,59.6
2023-02-22T12:24:28.127Z,59.6
2023-02-22T12:26:11.810Z,59.6
2023-02-22T12:27:55.524Z,59.6
2023-02-22T12:29:39.245Z,59.7
2023-02-22T12:31:22.944Z,59.7
2023-02-22T12:33:06.626Z,59.7
2023-02-22T12:34:50.336Z,59.7
2023-02-22T12:36:34.037Z,59.8
2023-02-22T12:38:17.734Z,59.8
2023-02-22T12:40:01.451Z,59.8
2023-02-22T12:41:45.274Z,59.8
2023-02-22T12:43:28.873Z,59.8
2023-02-22T12:45:12.546Z,59.8
2023-02-22T12:46:56.251Z,59.8
2023-02-22T12:48:39.946Z,59.9
2023-02-22T12:50:23.735Z,59.9
2023-02-22T12:52:07.356Z,59.9
2023-02-22T12:53:51.094Z,59.9
2023-02-22T12:55:34.776Z,59.9
2023-02-22T12:57:18.461Z,59.9
2023-02-22T12:59:02.178Z,59.9
2023-02-22T13:00:45.880Z,59.9
2023-02-22T13:02:29.595Z,59.9
2023-02-22T13:04:13.311Z,59.9
2023-02-22T13:05:56.996Z,59.9
2023-02-22T13:07:40.686Z,59.9
2023-02-22T13:09:24.396Z,59.8
2023-02-22T13:11:08.080Z,59.8
2023-02-22T13:12:51.795Z,59.8
2023-02-22T13:14:35.501Z,59.7
2023-02-22T13:16:19.283Z,59.7
2023-02-22T13:18:02.925Z,59.7
2023-02-22T13:19:46.599Z,59.7
2023-02-22T13:21:30.303Z,59.6
2023-02-22T13:23:14.187Z,59.6
2023-02-22T13:24:57.703Z,59.6
2023-02-22T13:26:41.397Z,59.6
2023-02-22T13:28:25.140Z,59.6
2023-02-22T13:30:08.882Z,59.6
2023-02-22T13:31:52.518Z,59.6
2023-02-22T13:33:36.236Z,59.5
2023-02-22T13:35:19.972Z,59.5
2023-02-22T13:37:03.638Z,59.5
2023-02-22T13:38:47.321Z,59.5
2023-02-22T13:40:31.039Z,59.5
2023-02-22T13:42:14.731Z,59.4
2023-02-22T13:43:58.456Z,59.4
2023-02-22T13:45:42.136Z,59.4
2023-02-22T13:47:25.834Z,59.5
2023-02-22T13:49:09.541Z,59.5
2023-02-22T13:50:53.242Z,59.5
2023-02-22T13:52:36.931Z,59.5
2023-02-22T13:54:20.656Z,59.5
2023-02-22T13:56:04.372Z,59.6
2023-02-22T13:57:48.057Z,59.3
2023-02-22T13:59:31.779Z,59.2
2023-02-22T14:01:15.450Z,59.4
2023-02-22T14:02:59.206Z,59.5
2023-02-22T14:04:42.898Z,59.5
2023-02-22T14:06:26.572Z,59.5
2023-02-22T14:08:10.267Z,59.4
2023-02-22T14:09:54.002Z,59.4
2023-02-22T14:11:37.675Z,59.4
2023-02-22T14:13:21.394Z,59.4
2023-02-22T14:15:05.079Z,59.4
2023-02-22T14:16:48.780Z,59.4
2023-02-22T14:18:32.487Z,59.4
2023-02-22T14:20:16.185Z,59.4
2023-02-22T14:21:59.894Z,59.5
2023-02-22T14:23:43.663Z,59.5
2023-02-22T14:25:27.289Z,59.4
2023-02-22T14:27:10.996Z,59.5
2023-02-22T14:28:54.686Z,59.5
2023-02-22T14:30:38.482Z,59.5
2023-02-22T14:32:22.236Z,59.5
2023-02-22T14:34:05.841Z,59.5
2023-02-22T14:35:49.520Z,59.5
2023-02-22T14:37:33.360Z,59.5
2023-02-22T14:39:16.910Z,59.5
2023-02-22T14:41:00.767Z,59.5
2023-02-22T14:42:44.345Z,59.5
2023-02-22T14:44:28.023Z,59.5
2023-02-22T14:46:11.715Z,59.5
2023-02-22T14:47:55.496Z,59.5
2023-02-22T14:49:39.175Z,59.5
2023-02-22T14:51:22.870Z,59.5
2023-02-22T14:53:06.528Z,59.5
2023-02-22T14:54:50.372Z,59.5
2023-02-22T14:56:33.954Z,59.6
2023-02-22T14:58:17.640Z,59.5
2023-02-22T15:00:01.333Z,59.5
2023-02-22T15:01:45.041Z,59.5
2023-02-22T15:03:28.748Z,59.5
2023-02-22T15:05:12.446Z,59.5
2023-02-22T15:06:56.155Z,59.5
2023-02-22T15:08:39.844Z,59.5
2023-02-22T15:10:23.606Z,59.2
2023-02-22T15:12:07.253Z,58.4
2023-02-22T15:13:50.952Z,58.1
2023-02-22T15:15:34.678Z,59
2023-02-22T15:17:18.366Z,59.1
2023-02-22T15:19:02.105Z,59.1
2023-02-22T15:20:45.773Z,59.1
2023-02-22T15:22:29.506Z,59.1
2023-02-22T15:24:13.312Z,59.1
2023-02-22T15:25:56.907Z,59.1
2023-02-22T15:27:40.578Z,59.1
2023-02-22T15:29:24.285Z,59.1
2023-02-22T15:31:07.987Z,59.1
2023-02-22T15:32:51.682Z,59.1
2023-02-22T15:34:35.392Z,59.1
2023-02-22T15:36:19.093Z,59.1
2023-02-22T15:38:02.794Z,59.1
2023-02-22T15:39:46.561Z,59.1
2023-02-22T15:41:30.244Z,59.2
2023-02-22T15:43:13.901Z,59.2
2023-02-22T15:44:57.610Z,59.1
2023-02-22T15:46:41.307Z,59.1
2023-02-22T15:48:25.053Z,59.2
2023-02-22T15:50:08.710Z,59.2
2023-02-22T15:51:52.444Z,59
2023-02-22T15:53:36.118Z,59
2023-02-22T15:55:19.808Z,59
2023-02-22T15:57:03.553Z,59.1
2023-02-22T15:58:47.236Z,59.1
2023-02-22T16:00:30.931Z,59.1
2023-02-22T16:02:14.633Z,59.1
2023-02-22T16:03:58.407Z,59.1
2023-02-22T16:05:42.036Z,59.1
2023-02-22T16:07:25.735Z,59.1
2023-02-22T16:09:09.466Z,59
2023-02-22T16:10:53.139Z,59
2023-02-22T16:12:36.906Z,59
2023-02-22T16:14:20.594Z,59.1
2023-02-22T16:16:04.243Z,59.1
2023-02-22T16:17:47.948Z,59.1
2023-02-22T16:19:31.674Z,59.1
2023-02-22T16:21:15.470Z,59.1
2023-02-22T16:22:59.155Z,59.1
2023-02-22T16:24:42.785Z,59.1
2023-02-22T16:26:26.471Z,59.1
2023-02-22T16:28:10.161Z,59
2023-02-22T16:29:53.877Z,59
2023-02-22T16:31:37.576Z,59.1
2023-02-22T16:33:21.398Z,59.1
2023-02-22T16:35:05.049Z,59.1
2023-02-22T16:36:48.845Z,59.1
2023-02-22T16:38:32.385Z,59.1
2023-02-22T16:40:16.198Z,59.1
2023-02-22T16:41:59.864Z,59.1
2023-02-22T16:43:43.486Z,59.1
2023-02-22T16:45:27.185Z,59.1
2023-02-22T16:47:10.922Z,59
2023-02-22T16:48:54.789Z,59.1
2023-02-22T16:50:38.282Z,59
2023-02-22T16:52:22.012Z,59
2023-02-22T16:54:05.712Z,59
2023-02-22T16:55:49.397Z,59
2023-02-22T16:57:33.103Z,59
2023-02-22T16:59:16.806Z,59
2023-02-22T17:01:00.508Z,59
2023-02-22T17:02:44.210Z,59
2023-02-22T17:04:27.918Z,59
2023-02-22T17:06:11.619Z,59
2023-02-22T17:07:55.327Z,59
2023-02-22T17:09:39.077Z,59
2023-02-22T17:11:22.790Z,59
2023-02-22T17:13:06.426Z,59
2023-02-22T17:14:50.189Z,59
2023-02-22T17:16:33.849Z,59
2023-02-22T17:18:17.529Z,59
2023-02-22T17:20:01.235Z,59
2023-02-22T17:21:44.938Z,59
2023-02-22T17:23:28.637Z,59.1
2023-02-22T17:25:12.339Z,59.2
2023-02-22T17:26:56.104Z,59.1
2023-02-22T17:28:39.789Z,59.2
2023-02-22T17:30:23.457Z,59.3
2023-02-22T17:32:07.153Z,58.7
2023-02-22T17:33:50.871Z,57.8
2023-02-22T17:35:34.560Z,57.8
2023-02-22T17:37:18.261Z,58.1
2023-02-22T17:39:01.998Z,58.6
2023-02-22T17:40:45.678Z,58.7
2023-02-22T17:42:29.398Z,58.6
2023-02-22T17:44:13.098Z,58.2
2023-02-22T17:45:56.775Z,57.8
2023-02-22T17:47:40.491Z,58
2023-02-22T17:49:24.190Z,58.6
2023-02-22T17:51:07.892Z,58.6
2023-02-22T17:52:51.598Z,58.6
2023-02-22T17:54:35.293Z,58.6
2023-02-22T17:56:19.007Z,58.7
2023-02-22T17:58:02.714Z,58.7
2023-02-22T17:59:46.411Z,58.6
2023-02-22T18:01:30.101Z,58.7
2023-02-22T18:03:13.804Z,58.7
2023-02-22T18:04:57.506Z,58.7
2023-02-22T18:06:41.242Z,58.7
2023-02-22T18:08:24.917Z,58.7
2023-02-22T18:10:08.616Z,58.7
2023-02-22T18:11:52.328Z,58.8
2023-02-22T18:13:36.021Z,58.7
2023-02-22T18:15:19.723Z,58.8
2023-02-22T18:17:03.456Z,58.7
2023-02-22T18:18:47.273Z,58.8
2023-02-22T18:20:30.832Z,58.9
2023-02-22T18:22:14.539Z,59.1
2023-02-22T18:23:58.307Z,59.1
2023-02-22T18:25:41.958Z,59
2023-02-22T18:27:25.661Z,59
2023-02-22T18:29:09.342Z,59
2023-02-22T18:30:53.052Z,58.9
2023-02-22T18:32:36.745Z,59
2023-02-22T18:34:20.519Z,59
2023-02-22T18:36:04.155Z,59.1
2023-02-22T18:37:47.861Z,59.2
2023-02-22T18:39:31.576Z,59.1
2023-02-22T18:41:15.280Z,59.1
2023-02-22T18:42:58.968Z,59.2
2023-02-22T18:44:42.666Z,59.4
2023-02-22T18:46:26.412Z,59.4
2023-02-22T18:48:10.067Z,59.4
2023-02-22T18:49:53.767Z,59.4
2023-02-22T18:51:37.527Z,60
2023-02-22T18:53:21.211Z,61.8
2023-02-22T18:55:04.873Z,65.1
2023-02-22T18:56:48.586Z,68.7
2023-02-22T18:58:32.295Z,70.3
2023-02-22T19:00:15.997Z,69.9
2023-02-22T19:01:59.687Z,68.7
2023-02-22T19:03:43.395Z,67.7
2023-02-22T19:05:27.093Z,65.8
2023-02-22T19:07:10.886Z,62.6
2023-02-22T19:08:54.499Z,63.3
2023-02-22T19:10:38.203Z,62.6
2023-02-22T19:12:21.945Z,62.6
2023-02-22T19:14:05.631Z,62
2023-02-22T19:15:49.314Z,61.8
2023-02-22T19:17:33.018Z,61.8
2023-02-22T19:19:16.757Z,61.7
2023-02-22T19:21:00.425Z,61.8
2023-02-22T19:22:44.113Z,61.7
2023-02-22T19:24:27.818Z,61.8
2023-02-22T19:26:11.577Z,61.7
2023-02-22T19:27:55.224Z,61.9
2023-02-22T19:29:38.930Z,62
2023-02-22T19:31:22.628Z,62.1
2023-02-22T19:33:06.349Z,61.9
2023-02-22T19:34:50.041Z,61.8
2023-02-22T19:36:33.734Z,61.8
2023-02-22T19:38:17.544Z,61.7
2023-02-22T19:40:01.152Z,61.7
2023-02-22T19:41:44.919Z,61.8
2023-02-22T19:43:28.556Z,61.8
2023-02-22T19:45:12.267Z,61.8
2023-02-22T19:46:55.980Z,61.7
2023-02-22T19:48:39.680Z,61.6
2023-02-22T19:50:23.449Z,61.6
2023-02-22T19:52:07.133Z,61.7
2023-02-22T19:53:50.771Z,61.6
2023-02-22T19:55:34.483Z,61.5
2023-02-22T19:57:18.279Z,61.4
2023-02-22T19:59:01.924Z,61.4
2023-02-22T20:00:45.580Z,61.4
2023-02-22T20:02:29.285Z,61.3
2023-02-22T20:04:13.029Z,61.4
2023-02-22T20:05:56.703Z,61.4
2023-02-22T20:07:40.407Z,61.3
2023-02-22T20:09:24.135Z,61.3
2023-02-22T20:11:07.796Z,61.3
2023-02-22T20:12:51.510Z,61.3
2023-02-22T20:14:35.206Z,61.3
2023-02-22T20:16:18.913Z,61.3
2023-02-22T20:18:02.610Z,61.3
2023-02-22T20:19:46.357Z,61.3
2023-02-22T20:21:30.019Z,61.3
2023-02-22T20:23:13.726Z,61.4
2023-02-22T20:24:57.436Z,61.5
2023-02-22T20:26:41.117Z,61.4
2023-02-22T20:28:24.828Z,61.3
2023-02-22T20:30:08.537Z,61.3
2023-02-22T20:31:52.240Z,61.2
2023-02-22T20:33:35.937Z,61.3
2023-02-22T20:35:19.633Z,61.2
2023-02-22T20:37:03.347Z,61.1
2023-02-22T20:38:47.054Z,61
2023-02-22T20:40:30.734Z,61.3
2023-02-22T20:42:14.430Z,62.2
2023-02-22T20:43:58.146Z,62.5
2023-02-22T20:45:41.846Z,62.6
2023-02-22T20:47:25.600Z,62.6
2023-02-22T20:49:09.309Z,62.5
2023-02-22T20:50:52.965Z,62.5
2023-02-22T20:52:36.682Z,62.5
2023-02-22T20:54:20.366Z,62.5
2023-02-22T20:56:04.061Z,62.5
2023-02-22T20:57:47.762Z,62.5
2023-02-22T20:59:31.473Z,62.4
2023-02-22T21:01:15.181Z,62.5
2023-02-22T21:02:58.937Z,62.5
2023-02-22T21:04:42.592Z,62.5
2023-02-22T21:06:26.290Z,62.5
2023-02-22T21:08:09.986Z,62.4
2023-02-22T21:09:53.748Z,62.4
2023-02-22T21:11:37.388Z,62.4
2023-02-22T21:13:21.094Z,62.4
2023-02-22T21:15:04.789Z,62.4
2023-02-22T21:16:48.501Z,62.4
2023-02-22T21:18:32.196Z,62.4
2023-02-22T21:20:15.956Z,62.2
2023-02-22T21:21:59.605Z,61.9
2023-02-22T21:23:43.396Z,61.8
2023-02-22T21:25:27.044Z,61.7
2023-02-22T21:27:10.898Z,61.7
2023-02-22T21:28:54.486Z,61.6
2023-02-22T21:30:38.127Z,61.5
2023-02-22T21:32:21.867Z,61.5
2023-02-22T21:34:05.530Z,61.5
2023-02-22T21:35:49.268Z,61.4
2023-02-22T21:37:32.931Z,61.3
2023-02-22T21:39:16.627Z,61.3
2023-02-22T21:41:00.328Z,61.3
2023-02-22T21:42:44.039Z,61.3
2023-02-22T21:44:27.734Z,61.2
2023-02-22T21:46:11.467Z,61.2
2023-02-22T21:47:55.145Z,61.1
2023-02-22T21:49:38.843Z,61.1
2023-02-22T21:51:22.575Z,61.1
2023-02-22T21:53:06.298Z,61.1
2023-02-22T21:54:50.097Z,61
2023-02-22T21:56:33.675Z,61.4
2023-02-22T21:58:17.512Z,63.2
2023-02-22T22:00:01.070Z,64.2
2023-02-22T22:01:44.755Z,64.5
2023-02-22T22:03:28.494Z,64
2023-02-22T22:05:12.216Z,64.4
2023-02-22T22:06:55.950Z,64.2
2023-02-22T22:08:39.566Z,64.1
2023-02-22T22:10:23.271Z,64
2023-02-22T22:12:06.996Z,64.1
2023-02-22T22:13:50.673Z,63.8
2023-02-22T22:15:34.380Z,63.6
2023-02-22T22:17:18.189Z,63.5
2023-02-22T22:19:01.783Z,63.5
2023-02-22T22:20:45.530Z,63.5
2023-02-22T22:22:29.308Z,63.5
2023-02-22T22:24:12.985Z,61.8
2023-02-22T22:25:56.601Z,51.8
2023-02-22T22:27:40.379Z,50.5
2023-02-22T22:29:24.116Z,52.1
2023-02-22T22:31:07.757Z,55.3
2023-02-22T22:32:51.563Z,60.1
2023-02-22T22:34:35.095Z,60.1
2023-02-22T22:36:18.798Z,59.6
2023-02-22T22:38:02.594Z,59.3
2023-02-22T22:39:46.232Z,59.3
2023-02-22T22:41:30.009Z,59.3
2023-02-22T22:43:13.629Z,59.5
2023-02-22T22:44:57.349Z,59.6
2023-02-22T22:46:41.152Z,59.7
2023-02-22T22:48:24.730Z,59.7
2023-02-22T22:50:08.428Z,59.8
2023-02-22T22:51:52.131Z,59.9
2023-02-22T22:53:35.830Z,60
2023-02-22T22:55:19.530Z,60
2023-02-22T22:57:03.334Z,60.1
2023-02-22T22:58:46.924Z,60.2
2023-02-22T23:00:30.785Z,60.2
2023-02-22T23:02:14.336Z,60.8
2023-02-22T23:03:58.034Z,61
2023-02-22T23:05:41.745Z,60.9
2023-02-22T23:07:25.442Z,60.9
2023-02-22T23:09:09.153Z,60.6
2023-02-22T23:10:52.847Z,60.6
2023-02-22T23:12:36.582Z,60.6
2023-02-22T23:14:20.247Z,60.6